sensor_id;sensor_type;location;lat;lon;timestamp;pressure;altitude;pressure_sealevel;temperature;humidity
65013;BME280;51715;39.432;-77.518;2023-11-19T00:00:33;99301.55;;;8.01;32.17
65013;BME280;51715;39.432;-77.518;2023-11-19T00:03:08;99303.99;;;8.17;32.54
65013;BME280;51715;39.432;-77.518;2023-11-19T00:05:36;99303.63;;;7.78;32.04
65013;BME280;51715;39.432;-77.518;2023-11-19T00:08:06;99306.70;;;7.82;32.53
65013;BME280;51715;39.432;-77.518;2023-11-19T00:10:38;99315.13;;;6.63;34.11
65013;BME280;51715;39.432;-77.518;2023-11-19T00:13:09;99321.00;;;6.77;34.11
65013;BME280;51715;39.432;-77.518;2023-11-19T00:15:37;99320.08;;;6.52;34.13
65013;BME280;51715;39.432;-77.518;2023-11-19T00:18:13;99319.46;;;6.66;34.10
65013;BME280;51715;39.432;-77.518;2023-11-19T00:20:43;99313.98;;;6.95;33.93
65013;BME280;51715;39.432;-77.518;2023-11-19T00:23:11;99314.97;;;7.05;34.05
65013;BME280;51715;39.432;-77.518;2023-11-19T00:25:40;99316.80;;;6.39;34.13
65013;BME280;51715;39.432;-77.518;2023-11-19T00:28:08;99318.48;;;6.96;33.84
65013;BME280;51715;39.432;-77.518;2023-11-19T00:30:36;99318.85;;;6.23;34.82
65013;BME280;51715;39.432;-77.518;2023-11-19T00:33:05;99322.23;;;6.21;34.67
65013;BME280;51715;39.432;-77.518;2023-11-19T00:35:33;99322.39;;;6.38;34.09
65013;BME280;51715;39.432;-77.518;2023-11-19T00:38:02;99324.78;;;6.61;33.40
65013;BME280;51715;39.432;-77.518;2023-11-19T00:40:30;99324.24;;;7.03;32.58
65013;BME280;51715;39.432;-77.518;2023-11-19T00:43:01;99321.08;;;7.49;32.52
65013;BME280;51715;39.432;-77.518;2023-11-19T00:45:31;99324.76;;;7.31;32.32
65013;BME280;51715;39.432;-77.518;2023-11-19T00:48:00;99323.12;;;7.38;32.28
65013;BME280;51715;39.432;-77.518;2023-11-19T00:50:29;99325.83;;;7.19;32.01
65013;BME280;51715;39.432;-77.518;2023-11-19T00:53:00;99324.12;;;7.51;31.84
65013;BME280;51715;39.432;-77.518;2023-11-19T00:55:30;99323.62;;;7.49;31.79
65013;BME280;51715;39.432;-77.518;2023-11-19T00:58:01;99323.30;;;7.88;31.93
65013;BME280;51715;39.432;-77.518;2023-11-19T01:00:30;99325.64;;;7.29;32.48
65013;BME280;51715;39.432;-77.518;2023-11-19T01:02:57;99327.15;;;7.28;32.21
65013;BME280;51715;39.432;-77.518;2023-11-19T01:05:26;99330.07;;;7.41;31.82
65013;BME280;51715;39.432;-77.518;2023-11-19T01:07:55;99334.11;;;7.66;31.78
65013;BME280;51715;39.432;-77.518;2023-11-19T01:10:24;99336.18;;;7.78;30.91
65013;BME280;51715;39.432;-77.518;2023-11-19T01:12:53;99333.92;;;7.84;30.87
65013;BME280;51715;39.432;-77.518;2023-11-19T01:15:22;99335.83;;;8.03;30.11
65013;BME280;51715;39.432;-77.518;2023-11-19T01:17:52;99331.62;;;8.18;29.66
65013;BME280;51715;39.432;-77.518;2023-11-19T01:20:21;99330.26;;;8.26;29.31
65013;BME280;51715;39.432;-77.518;2023-11-19T01:22:48;99323.72;;;8.87;28.98
65013;BME280;51715;39.432;-77.518;2023-11-19T01:25:16;99321.54;;;8.48;28.73
65013;BME280;51715;39.432;-77.518;2023-11-19T01:27:47;99317.77;;;8.51;29.27
65013;BME280;51715;39.432;-77.518;2023-11-19T01:30:17;99316.66;;;8.52;28.62
65013;BME280;51715;39.432;-77.518;2023-11-19T01:32:48;99312.91;;;8.88;28.50
65013;BME280;51715;39.432;-77.518;2023-11-19T01:35:17;99309.32;;;8.68;28.94
65013;BME280;51715;39.432;-77.518;2023-11-19T01:37:47;99307.64;;;8.65;28.60
65013;BME280;51715;39.432;-77.518;2023-11-19T01:40:19;99308.61;;;8.47;28.57
65013;BME280;51715;39.432;-77.518;2023-11-19T01:42:48;99310.59;;;8.61;28.54
65013;BME280;51715;39.432;-77.518;2023-11-19T01:45:26;99315.87;;;8.94;28.33
65013;BME280;51715;39.432;-77.518;2023-11-19T01:47:58;99323.74;;;8.29;28.95
65013;BME280;51715;39.432;-77.518;2023-11-19T01:50:29;99324.64;;;8.27;29.51
65013;BME280;51715;39.432;-77.518;2023-11-19T01:53:01;99325.03;;;8.33;28.84
65013;BME280;51715;39.432;-77.518;2023-11-19T01:55:32;99331.37;;;8.72;28.47
65013;BME280;51715;39.432;-77.518;2023-11-19T01:58:04;99337.51;;;8.52;28.90
65013;BME280;51715;39.432;-77.518;2023-11-19T02:00:33;99336.13;;;8.91;28.37
65013;BME280;51715;39.432;-77.518;2023-11-19T02:03:06;99339.25;;;9.39;27.71
65013;BME280;51715;39.432;-77.518;2023-11-19T02:05:35;99343.53;;;9.42;27.49
65013;BME280;51715;39.432;-77.518;2023-11-19T02:08:07;99337.21;;;9.49;27.37
65013;BME280;51715;39.432;-77.518;2023-11-19T02:10:37;99336.43;;;9.83;27.20
65013;BME280;51715;39.432;-77.518;2023-11-19T02:13:05;99334.35;;;9.79;26.90
65013;BME280;51715;39.432;-77.518;2023-11-19T02:15:32;99331.73;;;9.65;27.39
65013;BME280;51715;39.432;-77.518;2023-11-19T02:18:19;99331.43;;;9.62;27.12
65013;BME280;51715;39.432;-77.518;2023-11-19T02:20:47;99329.13;;;9.79;27.29
65013;BME280;51715;39.432;-77.518;2023-11-19T02:23:16;99332.37;;;9.72;27.04
65013;BME280;51715;39.432;-77.518;2023-11-19T02:25:54;99333.35;;;9.70;27.12
65013;BME280;51715;39.432;-77.518;2023-11-19T02:28:25;99333.11;;;9.81;27.30
65013;BME280;51715;39.432;-77.518;2023-11-19T02:30:54;99333.52;;;9.76;27.44
65013;BME280;51715;39.432;-77.518;2023-11-19T02:33:22;99337.00;;;9.47;27.29
65013;BME280;51715;39.432;-77.518;2023-11-19T02:35:50;99338.72;;;9.53;27.06
65013;BME280;51715;39.432;-77.518;2023-11-19T02:38:18;99335.57;;;9.64;27.18
65013;BME280;51715;39.432;-77.518;2023-11-19T02:40:47;99335.98;;;9.35;27.19
65013;BME280;51715;39.432;-77.518;2023-11-19T02:43:15;99332.99;;;9.59;27.47
65013;BME280;51715;39.432;-77.518;2023-11-19T02:45:44;99331.27;;;9.51;27.12
65013;BME280;51715;39.432;-77.518;2023-11-19T02:48:12;99328.04;;;9.22;27.40
65013;BME280;51715;39.432;-77.518;2023-11-19T02:50:40;99322.93;;;9.41;27.09
65013;BME280;51715;39.432;-77.518;2023-11-19T02:53:08;99322.65;;;9.38;27.18
65013;BME280;51715;39.432;-77.518;2023-11-19T02:55:36;99324.92;;;9.35;27.51
65013;BME280;51715;39.432;-77.518;2023-11-19T02:58:05;99325.26;;;9.27;27.34
65013;BME280;51715;39.432;-77.518;2023-11-19T03:00:32;99326.85;;;9.27;27.31
65013;BME280;51715;39.432;-77.518;2023-11-19T03:03:00;99327.16;;;9.39;27.37
65013;BME280;51715;39.432;-77.518;2023-11-19T03:05:29;99329.26;;;9.15;27.65
65013;BME280;51715;39.432;-77.518;2023-11-19T03:07:57;99334.26;;;9.32;27.60
65013;BME280;51715;39.432;-77.518;2023-11-19T03:10:26;99339.58;;;9.37;27.66
65013;BME280;51715;39.432;-77.518;2023-11-19T03:12:54;99340.74;;;9.25;27.76
65013;BME280;51715;39.432;-77.518;2023-11-19T03:15:22;99342.80;;;9.30;28.11
65013;BME280;51715;39.432;-77.518;2023-11-19T03:17:50;99344.92;;;8.91;28.44
65013;BME280;51715;39.432;-77.518;2023-11-19T03:20:18;99347.62;;;8.24;29.33
65013;BME280;51715;39.432;-77.518;2023-11-19T03:22:46;99349.02;;;8.66;29.11
65013;BME280;51715;39.432;-77.518;2023-11-19T03:25:14;99353.11;;;8.50;29.31
65013;BME280;51715;39.432;-77.518;2023-11-19T03:27:42;99355.85;;;8.72;29.08
65013;BME280;51715;39.432;-77.518;2023-11-19T03:30:11;99356.65;;;8.18;29.58
65013;BME280;51715;39.432;-77.518;2023-11-19T03:32:39;99357.50;;;8.02;29.87
65013;BME280;51715;39.432;-77.518;2023-11-19T03:35:07;99358.49;;;8.63;29.10
65013;BME280;51715;39.432;-77.518;2023-11-19T03:37:36;99356.89;;;8.86;29.22
65013;BME280;51715;39.432;-77.518;2023-11-19T03:40:04;99353.16;;;8.80;28.81
65013;BME280;51715;39.432;-77.518;2023-11-19T03:42:33;99345.68;;;9.00;28.60
65013;BME280;51715;39.432;-77.518;2023-11-19T03:45:02;99342.20;;;9.17;28.44
65013;BME280;51715;39.432;-77.518;2023-11-19T03:47:30;99337.42;;;9.19;28.86
65013;BME280;51715;39.432;-77.518;2023-11-19T03:49:59;99334.43;;;9.24;28.55
65013;BME280;51715;39.432;-77.518;2023-11-19T03:52:28;99337.11;;;8.89;29.14
65013;BME280;51715;39.432;-77.518;2023-11-19T03:54:56;99333.57;;;8.71;28.89
65013;BME280;51715;39.432;-77.518;2023-11-19T03:57:24;99333.37;;;8.83;28.88
65013;BME280;51715;39.432;-77.518;2023-11-19T03:59:52;99338.90;;;8.42;29.74
65013;BME280;51715;39.432;-77.518;2023-11-19T04:02:20;99338.16;;;8.24;29.77
65013;BME280;51715;39.432;-77.518;2023-11-19T04:04:48;99335.88;;;8.38;29.75
65013;BME280;51715;39.432;-77.518;2023-11-19T04:07:17;99336.98;;;8.50;29.47
65013;BME280;51715;39.432;-77.518;2023-11-19T04:09:45;99334.17;;;8.58;29.50
65013;BME280;51715;39.432;-77.518;2023-11-19T04:12:13;99339.15;;;8.42;29.53
65013;BME280;51715;39.432;-77.518;2023-11-19T04:14:41;99340.47;;;8.48;29.96
65013;BME280;51715;39.432;-77.518;2023-11-19T04:17:09;99339.59;;;8.18;30.12
65013;BME280;51715;39.432;-77.518;2023-11-19T04:19:36;99343.18;;;8.34;29.79
65013;BME280;51715;39.432;-77.518;2023-11-19T04:22:04;99341.20;;;8.56;29.89
65013;BME280;51715;39.432;-77.518;2023-11-19T04:24:32;99342.68;;;8.53;29.74
65013;BME280;51715;39.432;-77.518;2023-11-19T04:27:00;99339.53;;;8.83;29.55
65013;BME280;51715;39.432;-77.518;2023-11-19T04:29:29;99336.48;;;8.82;29.11
65013;BME280;51715;39.432;-77.518;2023-11-19T04:31:57;99340.30;;;8.94;29.14
65013;BME280;51715;39.432;-77.518;2023-11-19T04:34:25;99339.15;;;8.69;29.18
65013;BME280;51715;39.432;-77.518;2023-11-19T04:36:54;99338.72;;;9.22;28.94
65013;BME280;51715;39.432;-77.518;2023-11-19T04:39:22;99336.83;;;9.07;29.04
65013;BME280;51715;39.432;-77.518;2023-11-19T04:41:50;99337.74;;;9.10;28.82
65013;BME280;51715;39.432;-77.518;2023-11-19T04:44:18;99334.45;;;9.32;28.81
65013;BME280;51715;39.432;-77.518;2023-11-19T04:46:46;99334.86;;;9.14;28.82
65013;BME280;51715;39.432;-77.518;2023-11-19T04:49:15;99336.65;;;9.10;28.90
65013;BME280;51715;39.432;-77.518;2023-11-19T04:51:44;99338.56;;;9.15;28.91
65013;BME280;51715;39.432;-77.518;2023-11-19T04:54:13;99338.68;;;9.00;28.90
65013;BME280;51715;39.432;-77.518;2023-11-19T04:56:45;99336.99;;;8.61;29.97
65013;BME280;51715;39.432;-77.518;2023-11-19T04:59:15;99337.72;;;8.61;29.84
65013;BME280;51715;39.432;-77.518;2023-11-19T05:04:08;99345.70;;;7.15;31.73
65013;BME280;51715;39.432;-77.518;2023-11-19T05:06:36;99345.16;;;6.84;32.05
65013;BME280;51715;39.432;-77.518;2023-11-19T05:09:04;99346.30;;;7.64;30.79
65013;BME280;51715;39.432;-77.518;2023-11-19T05:11:32;99350.55;;;8.35;29.73
65013;BME280;51715;39.432;-77.518;2023-11-19T05:14:02;99347.35;;;8.90;29.83
65013;BME280;51715;39.432;-77.518;2023-11-19T05:16:29;99349.88;;;8.66;29.74
65013;BME280;51715;39.432;-77.518;2023-11-19T05:18:57;99352.58;;;8.89;29.88
65013;BME280;51715;39.432;-77.518;2023-11-19T05:21:25;99353.95;;;8.87;29.75
65013;BME280;51715;39.432;-77.518;2023-11-19T05:23:53;99353.01;;;8.94;29.56
65013;BME280;51715;39.432;-77.518;2023-11-19T05:26:22;99356.61;;;8.61;29.71
65013;BME280;51715;39.432;-77.518;2023-11-19T05:28:50;99364.72;;;8.74;29.93
65013;BME280;51715;39.432;-77.518;2023-11-19T05:31:19;99368.24;;;8.37;30.58
65013;BME280;51715;39.432;-77.518;2023-11-19T05:33:47;99373.84;;;8.56;30.30
65013;BME280;51715;39.432;-77.518;2023-11-19T05:36:14;99371.50;;;8.67;29.90
65013;BME280;51715;39.432;-77.518;2023-11-19T05:38:42;99368.23;;;8.33;30.70
65013;BME280;51715;39.432;-77.518;2023-11-19T05:41:10;99371.06;;;7.60;32.08
65013;BME280;51715;39.432;-77.518;2023-11-19T05:43:39;99369.13;;;8.21;31.57
65013;BME280;51715;39.432;-77.518;2023-11-19T05:46:07;99375.44;;;8.24;30.76
65013;BME280;51715;39.432;-77.518;2023-11-19T05:48:34;99379.93;;;8.74;30.41
65013;BME280;51715;39.432;-77.518;2023-11-19T05:51:02;99377.96;;;8.03;30.80
65013;BME280;51715;39.432;-77.518;2023-11-19T05:53:31;99386.15;;;8.38;30.59
65013;BME280;51715;39.432;-77.518;2023-11-19T05:55:59;99391.43;;;8.49;30.37
65013;BME280;51715;39.432;-77.518;2023-11-19T05:58:28;99392.01;;;8.40;30.39
65013;BME280;51715;39.432;-77.518;2023-11-19T06:00:56;99392.44;;;8.52;30.26
65013;BME280;51715;39.432;-77.518;2023-11-19T06:03:25;99394.30;;;8.56;30.30
65013;BME280;51715;39.432;-77.518;2023-11-19T06:05:53;99396.21;;;8.47;30.48
65013;BME280;51715;39.432;-77.518;2023-11-19T06:08:22;99395.41;;;8.86;30.68
65013;BME280;51715;39.432;-77.518;2023-11-19T06:10:50;99394.17;;;8.44;30.88
65013;BME280;51715;39.432;-77.518;2023-11-19T06:13:18;99397.52;;;8.13;30.81
65013;BME280;51715;39.432;-77.518;2023-11-19T06:15:45;99398.23;;;8.43;31.07
65013;BME280;51715;39.432;-77.518;2023-11-19T06:18:13;99402.06;;;8.05;31.46
65013;BME280;51715;39.432;-77.518;2023-11-19T06:20:41;99401.82;;;8.10;31.39
65013;BME280;51715;39.432;-77.518;2023-11-19T06:23:09;99401.03;;;7.75;31.87
65013;BME280;51715;39.432;-77.518;2023-11-19T06:25:37;99402.08;;;7.80;31.69
65013;BME280;51715;39.432;-77.518;2023-11-19T06:28:06;99405.44;;;7.74;31.93
65013;BME280;51715;39.432;-77.518;2023-11-19T06:30:34;99404.76;;;7.56;32.21
65013;BME280;51715;39.432;-77.518;2023-11-19T06:33:03;99407.57;;;7.64;32.47
65013;BME280;51715;39.432;-77.518;2023-11-19T06:35:31;99408.97;;;7.35;32.46
65013;BME280;51715;39.432;-77.518;2023-11-19T06:37:59;99409.12;;;7.31;33.13
65013;BME280;51715;39.432;-77.518;2023-11-19T06:40:27;99414.15;;;7.03;33.01
65013;BME280;51715;39.432;-77.518;2023-11-19T06:42:54;99417.84;;;7.17;33.30
65013;BME280;51715;39.432;-77.518;2023-11-19T06:45:22;99417.66;;;7.26;33.56
65013;BME280;51715;39.432;-77.518;2023-11-19T06:47:50;99415.28;;;7.15;33.57
65013;BME280;51715;39.432;-77.518;2023-11-19T06:50:18;99424.12;;;7.00;33.84
65013;BME280;51715;39.432;-77.518;2023-11-19T06:52:47;99424.75;;;6.99;33.80
65013;BME280;51715;39.432;-77.518;2023-11-19T06:55:15;99429.29;;;6.74;33.90
65013;BME280;51715;39.432;-77.518;2023-11-19T06:57:43;99432.40;;;6.93;34.10
65013;BME280;51715;39.432;-77.518;2023-11-19T07:00:12;99436.01;;;6.89;34.14
65013;BME280;51715;39.432;-77.518;2023-11-19T07:02:40;99436.21;;;6.64;34.17
65013;BME280;51715;39.432;-77.518;2023-11-19T07:05:09;99437.11;;;6.87;34.04
65013;BME280;51715;39.432;-77.518;2023-11-19T07:07:36;99438.30;;;6.61;34.69
65013;BME280;51715;39.432;-77.518;2023-11-19T07:10:05;99440.20;;;6.52;34.40
65013;BME280;51715;39.432;-77.518;2023-11-19T07:12:33;99443.84;;;6.60;34.09
65013;BME280;51715;39.432;-77.518;2023-11-19T07:15:02;99447.86;;;6.71;33.98
65013;BME280;51715;39.432;-77.518;2023-11-19T07:17:31;99447.98;;;6.74;33.98
65013;BME280;51715;39.432;-77.518;2023-11-19T07:19:58;99448.08;;;6.72;33.97
65013;BME280;51715;39.432;-77.518;2023-11-19T07:22:26;99451.55;;;6.76;33.93
65013;BME280;51715;39.432;-77.518;2023-11-19T07:24:55;99449.29;;;6.25;34.28
65013;BME280;51715;39.432;-77.518;2023-11-19T07:27:23;99450.92;;;6.58;34.52
65013;BME280;51715;39.432;-77.518;2023-11-19T07:29:51;99450.38;;;6.60;34.61
65013;BME280;51715;39.432;-77.518;2023-11-19T07:32:19;99449.90;;;6.43;34.62
65013;BME280;51715;39.432;-77.518;2023-11-19T07:34:47;99449.13;;;6.50;34.40
65013;BME280;51715;39.432;-77.518;2023-11-19T07:37:15;99451.32;;;5.91;35.63
65013;BME280;51715;39.432;-77.518;2023-11-19T07:39:42;99448.60;;;6.02;35.00
65013;BME280;51715;39.432;-77.518;2023-11-19T07:42:10;99447.91;;;6.12;34.95
65013;BME280;51715;39.432;-77.518;2023-11-19T07:44:38;99447.27;;;6.30;34.44
65013;BME280;51715;39.432;-77.518;2023-11-19T07:47:06;99445.95;;;6.31;34.52
65013;BME280;51715;39.432;-77.518;2023-11-19T07:49:34;99446.50;;;6.22;34.97
65013;BME280;51715;39.432;-77.518;2023-11-19T07:52:02;99448.14;;;6.26;35.46
65013;BME280;51715;39.432;-77.518;2023-11-19T07:54:30;99447.53;;;5.93;35.33
65013;BME280;51715;39.432;-77.518;2023-11-19T07:56:58;99448.66;;;5.97;35.33
65013;BME280;51715;39.432;-77.518;2023-11-19T07:59:26;99450.76;;;5.98;35.30
65013;BME280;51715;39.432;-77.518;2023-11-19T08:01:54;99449.69;;;6.51;34.91
65013;BME280;51715;39.432;-77.518;2023-11-19T08:04:22;99447.87;;;5.88;35.50
65013;BME280;51715;39.432;-77.518;2023-11-19T08:06:50;99448.55;;;6.14;35.40
65013;BME280;51715;39.432;-77.518;2023-11-19T08:09:18;99450.24;;;5.56;36.08
65013;BME280;51715;39.432;-77.518;2023-11-19T08:11:46;99448.89;;;5.89;36.38
65013;BME280;51715;39.432;-77.518;2023-11-19T08:14:14;99450.84;;;5.66;36.37
65013;BME280;51715;39.432;-77.518;2023-11-19T08:16:42;99452.89;;;5.85;36.35
65013;BME280;51715;39.432;-77.518;2023-11-19T08:19:09;99455.48;;;5.24;36.74
65013;BME280;51715;39.432;-77.518;2023-11-19T08:21:37;99450.83;;;5.08;37.84
65013;BME280;51715;39.432;-77.518;2023-11-19T08:24:06;99451.54;;;5.10;37.06
65013;BME280;51715;39.432;-77.518;2023-11-19T08:26:35;99450.41;;;5.34;36.87
65013;BME280;51715;39.432;-77.518;2023-11-19T08:29:03;99452.55;;;5.45;36.67
65013;BME280;51715;39.432;-77.518;2023-11-19T08:31:31;99451.69;;;5.40;36.56
65013;BME280;51715;39.432;-77.518;2023-11-19T08:33:59;99456.42;;;5.08;37.43
65013;BME280;51715;39.432;-77.518;2023-11-19T08:36:27;99460.12;;;4.85;37.88
65013;BME280;51715;39.432;-77.518;2023-11-19T08:38:55;99462.98;;;4.83;37.71
65013;BME280;51715;39.432;-77.518;2023-11-19T08:41:23;99461.42;;;5.04;37.37
65013;BME280;51715;39.432;-77.518;2023-11-19T08:43:51;99462.21;;;4.95;37.37
65013;BME280;51715;39.432;-77.518;2023-11-19T08:46:20;99459.91;;;4.87;37.56
65013;BME280;51715;39.432;-77.518;2023-11-19T08:48:48;99461.27;;;3.17;40.89
65013;BME280;51715;39.432;-77.518;2023-11-19T08:51:16;99460.76;;;4.08;39.27
65013;BME280;51715;39.432;-77.518;2023-11-19T08:53:44;99458.16;;;3.93;39.72
65013;BME280;51715;39.432;-77.518;2023-11-19T08:56:12;99463.74;;;4.38;38.79
65013;BME280;51715;39.432;-77.518;2023-11-19T08:58:40;99459.18;;;4.35;39.08
65013;BME280;51715;39.432;-77.518;2023-11-19T09:01:08;99461.27;;;4.23;38.80
65013;BME280;51715;39.432;-77.518;2023-11-19T09:03:37;99456.76;;;4.12;38.97
65013;BME280;51715;39.432;-77.518;2023-11-19T09:06:06;99451.87;;;4.30;38.97
65013;BME280;51715;39.432;-77.518;2023-11-19T09:08:34;99451.71;;;4.24;38.79
65013;BME280;51715;39.432;-77.518;2023-11-19T09:11:07;99451.49;;;4.80;38.33
65013;BME280;51715;39.432;-77.518;2023-11-19T09:13:35;99446.67;;;4.70;38.07
65013;BME280;51715;39.432;-77.518;2023-11-19T09:16:03;99446.94;;;4.87;38.01
65013;BME280;51715;39.432;-77.518;2023-11-19T09:18:31;99441.77;;;4.80;37.66
65013;BME280;51715;39.432;-77.518;2023-11-19T09:20:59;99441.10;;;4.59;37.62
65013;BME280;51715;39.432;-77.518;2023-11-19T09:23:28;99442.46;;;4.82;37.61
65013;BME280;51715;39.432;-77.518;2023-11-19T09:25:56;99443.36;;;5.12;37.58
65013;BME280;51715;39.432;-77.518;2023-11-19T09:28:25;99440.42;;;4.96;38.06
65013;BME280;51715;39.432;-77.518;2023-11-19T09:30:53;99447.65;;;4.50;37.75
65013;BME280;51715;39.432;-77.518;2023-11-19T09:33:21;99449.33;;;4.55;38.23
65013;BME280;51715;39.432;-77.518;2023-11-19T09:35:49;99446.38;;;4.07;39.69
65013;BME280;51715;39.432;-77.518;2023-11-19T09:38:17;99452.03;;;4.12;39.28
65013;BME280;51715;39.432;-77.518;2023-11-19T09:40:45;99454.51;;;3.85;38.92
65013;BME280;51715;39.432;-77.518;2023-11-19T09:43:15;99459.18;;;4.13;38.84
65013;BME280;51715;39.432;-77.518;2023-11-19T09:45:48;99457.93;;;4.17;39.26
65013;BME280;51715;39.432;-77.518;2023-11-19T09:48:17;99460.62;;;4.04;39.18
65013;BME280;51715;39.432;-77.518;2023-11-19T09:50:46;99460.19;;;4.00;39.40
65013;BME280;51715;39.432;-77.518;2023-11-19T09:53:15;99457.53;;;3.64;39.39
65013;BME280;51715;39.432;-77.518;2023-11-19T09:55:43;99460.40;;;3.92;39.31
65013;BME280;51715;39.432;-77.518;2023-11-19T09:58:12;99460.55;;;3.62;40.12
65013;BME280;51715;39.432;-77.518;2023-11-19T10:00:42;99462.34;;;3.87;39.33
65013;BME280;51715;39.432;-77.518;2023-11-19T10:03:12;99458.04;;;3.58;39.59
65013;BME280;51715;39.432;-77.518;2023-11-19T10:05:40;99458.50;;;4.36;39.62
65013;BME280;51715;39.432;-77.518;2023-11-19T10:08:08;99462.56;;;3.86;39.58
65013;BME280;51715;39.432;-77.518;2023-11-19T10:10:36;99461.65;;;3.79;39.89
65013;BME280;51715;39.432;-77.518;2023-11-19T10:13:04;99460.02;;;3.64;40.39
65013;BME280;51715;39.432;-77.518;2023-11-19T10:15:36;99462.25;;;3.38;41.09
65013;BME280;51715;39.432;-77.518;2023-11-19T10:18:04;99461.20;;;3.23;41.05
65013;BME280;51715;39.432;-77.518;2023-11-19T10:20:36;99460.01;;;3.86;40.39
65013;BME280;51715;39.432;-77.518;2023-11-19T10:23:05;99460.84;;;3.45;40.64
65013;BME280;51715;39.432;-77.518;2023-11-19T10:25:33;99462.14;;;3.65;40.34
65013;BME280;51715;39.432;-77.518;2023-11-19T10:28:02;99464.70;;;3.15;41.04
65013;BME280;51715;39.432;-77.518;2023-11-19T10:30:31;99467.37;;;3.61;41.04
65013;BME280;51715;39.432;-77.518;2023-11-19T10:33:07;99469.19;;;3.64;40.83
65013;BME280;51715;39.432;-77.518;2023-11-19T10:35:36;99475.59;;;3.99;39.90
65013;BME280;51715;39.432;-77.518;2023-11-19T10:38:15;99474.69;;;3.57;40.88
65013;BME280;51715;39.432;-77.518;2023-11-19T10:40:44;99480.15;;;3.84;39.75
65013;BME280;51715;39.432;-77.518;2023-11-19T10:43:13;99479.59;;;4.24;39.28
65013;BME280;51715;39.432;-77.518;2023-11-19T10:45:41;99475.78;;;4.31;39.32
65013;BME280;51715;39.432;-77.518;2023-11-19T10:48:10;99481.69;;;3.69;39.92
65013;BME280;51715;39.432;-77.518;2023-11-19T10:50:39;99475.93;;;3.36;40.15
65013;BME280;51715;39.432;-77.518;2023-11-19T10:53:09;99482.07;;;4.03;39.35
65013;BME280;51715;39.432;-77.518;2023-11-19T10:55:38;99477.87;;;3.23;40.94
65013;BME280;51715;39.432;-77.518;2023-11-19T10:58:07;99474.28;;;3.93;39.74
65013;BME280;51715;39.432;-77.518;2023-11-19T11:00:39;99474.41;;;4.01;39.54
65013;BME280;51715;39.432;-77.518;2023-11-19T11:03:11;99476.78;;;3.57;40.06
65013;BME280;51715;39.432;-77.518;2023-11-19T11:05:43;99482.80;;;3.71;39.87
65013;BME280;51715;39.432;-77.518;2023-11-19T11:08:19;99491.60;;;4.14;39.39
65013;BME280;51715;39.432;-77.518;2023-11-19T11:10:53;99491.42;;;3.87;39.63
65013;BME280;51715;39.432;-77.518;2023-11-19T11:13:23;99498.56;;;4.03;39.37
65013;BME280;51715;39.432;-77.518;2023-11-19T11:15:52;99497.82;;;4.27;39.10
65013;BME280;51715;39.432;-77.518;2023-11-19T11:18:21;99499.43;;;3.82;39.85
65013;BME280;51715;39.432;-77.518;2023-11-19T11:20:50;99501.65;;;3.62;40.08
65013;BME280;51715;39.432;-77.518;2023-11-19T11:23:36;99503.72;;;4.07;39.87
65013;BME280;51715;39.432;-77.518;2023-11-19T11:26:20;99504.28;;;4.03;39.61
65013;BME280;51715;39.432;-77.518;2023-11-19T11:28:58;99506.24;;;4.33;38.94
65013;BME280;51715;39.432;-77.518;2023-11-19T11:31:36;99509.04;;;4.50;38.44
65013;BME280;51715;39.432;-77.518;2023-11-19T11:34:27;99509.77;;;4.56;38.43
65013;BME280;51715;39.432;-77.518;2023-11-19T11:37:10;99508.35;;;4.64;38.21
65013;BME280;51715;39.432;-77.518;2023-11-19T11:39:40;99507.39;;;4.62;37.93
65013;BME280;51715;39.432;-77.518;2023-11-19T11:42:40;99509.52;;;4.54;38.13
65013;BME280;51715;39.432;-77.518;2023-11-19T11:45:09;99512.10;;;4.56;37.97
65013;BME280;51715;39.432;-77.518;2023-11-19T11:48:31;99510.66;;;4.21;38.47
65013;BME280;51715;39.432;-77.518;2023-11-19T11:50:59;99514.12;;;4.18;38.40
65013;BME280;51715;39.432;-77.518;2023-11-19T11:53:27;99513.13;;;4.13;38.66
65013;BME280;51715;39.432;-77.518;2023-11-19T11:55:59;99515.94;;;4.34;38.71
65013;BME280;51715;39.432;-77.518;2023-11-19T11:58:30;99516.79;;;4.27;38.96
65013;BME280;51715;39.432;-77.518;2023-11-19T12:00:59;99524.31;;;4.25;39.07
65013;BME280;51715;39.432;-77.518;2023-11-19T12:03:28;99525.83;;;4.21;39.14
65013;BME280;51715;39.432;-77.518;2023-11-19T12:05:58;99524.77;;;4.04;39.02
65013;BME280;51715;39.432;-77.518;2023-11-19T12:08:28;99530.98;;;3.98;39.31
65013;BME280;51715;39.432;-77.518;2023-11-19T12:10:57;99538.28;;;4.28;39.26
65013;BME280;51715;39.432;-77.518;2023-11-19T12:13:47;99543.27;;;4.15;39.23
65013;BME280;51715;39.432;-77.518;2023-11-19T12:16:20;99543.86;;;4.43;39.16
65013;BME280;51715;39.432;-77.518;2023-11-19T12:18:49;99542.83;;;4.29;39.10
65013;BME280;51715;39.432;-77.518;2023-11-19T12:21:30;99549.91;;;4.34;39.08
65013;BME280;51715;39.432;-77.518;2023-11-19T12:23:59;99553.45;;;3.46;40.14
65013;BME280;51715;39.432;-77.518;2023-11-19T12:26:36;99550.75;;;4.21;39.71
65013;BME280;51715;39.432;-77.518;2023-11-19T12:29:04;99555.56;;;4.30;39.65
65013;BME280;51715;39.432;-77.518;2023-11-19T12:31:32;99558.66;;;4.20;39.86
65013;BME280;51715;39.432;-77.518;2023-11-19T12:34:04;99563.77;;;4.44;39.80
65013;BME280;51715;39.432;-77.518;2023-11-19T12:36:33;99565.51;;;4.57;39.40
65013;BME280;51715;39.432;-77.518;2023-11-19T12:39:01;99569.63;;;4.24;39.55
65013;BME280;51715;39.432;-77.518;2023-11-19T12:41:28;99568.27;;;4.21;40.06
65013;BME280;51715;39.432;-77.518;2023-11-19T12:44:10;99569.91;;;4.49;39.37
65013;BME280;51715;39.432;-77.518;2023-11-19T12:46:39;99565.95;;;4.78;39.10
65013;BME280;51715;39.432;-77.518;2023-11-19T12:49:07;99563.68;;;4.78;39.34
65013;BME280;51715;39.432;-77.518;2023-11-19T12:51:35;99568.74;;;5.00;39.72
65013;BME280;51715;39.432;-77.518;2023-11-19T12:54:04;99578.26;;;4.42;39.78
65013;BME280;51715;39.432;-77.518;2023-11-19T12:56:32;99582.38;;;4.89;39.83
65013;BME280;51715;39.432;-77.518;2023-11-19T12:59:11;99586.31;;;4.82;39.48
65013;BME280;51715;39.432;-77.518;2023-11-19T13:01:39;99596.21;;;5.46;39.29
65013;BME280;51715;39.432;-77.518;2023-11-19T13:04:27;99597.65;;;5.71;38.83